Weather reports worldwide

Advertisment
Mt. St.Vincent, France (7382): temperature & dewpoint: 18.01.2019 00:00:00 - 24.01.2019 00:00:00 (CET)Mt. St.Vincent, France (7382): wind speed & gusts: 18.01.2019 00:00:00 - 24.01.2019 00:00:00 (CET)Mt. St.Vincent, France (7382): wind direction: 18.01.2019 00:00:00 - 24.01.2019 00:00:00 (CET)Mt. St.Vincent, France (7382): sunshine duration: 18.01.2019 00:00:00 - 24.01.2019 00:00:00 (CET)Mt. St.Vincent, France (7382): precipitation: 18.01.2019 00:00:00 - 24.01.2019 00:00:00 (CET)
Date & Time tt [°C] td [°C] ff [km/h] ff [kn] fx [km/h] fx [kn] dd sd [min] rr [mm]
24.01.2019 00:00:00 - - - - - - - - -
23.01.2019 23:00:00 -2,8 -3,2 9 5 26 14 N 0 0,0
23.01.2019 22:00:00 -2,5 -2,8 9 5 21 11 N 0 0,0
23.01.2019 21:00:00 -2,1 -2,4 8 4 18 10 N 0 0,0
23.01.2019 20:00:00 -2,1 -2,4 5 3 22 12 WNW 0 0,0
23.01.2019 19:00:00 -2,1 -2,4 13 7 28 15 WNW 0 -
23.01.2019 18:00:00 -2,1 -2,4 18 10 31 17 WNW 0 0,0
23.01.2019 17:00:00 -1,9 -2,2 15 8 26 14 WNW 0 0,0
23.01.2019 16:00:00 -1,7 -2,0 16 9 37 20 WNW 6 0,0
23.01.2019 15:00:00 -1,5 -1,8 22 12 39 21 WNW 0 0,0
23.01.2019 14:00:00 -0,7 -0,8 16 9 34 18 WNW 6 0,0
23.01.2019 13:00:00 -1,0 -1,1 15 8 31 17 WNW 0 -
23.01.2019 12:00:00 -0,7 -0,8 9 5 22 12 WNW 0 -
23.01.2019 11:00:00 -1,2 -1,3 11 6 28 15 WNW 6 -
23.01.2019 10:00:00 -1,0 -1,1 18 10 31 17 W 12 -
23.01.2019 09:00:00 -1,2 -1,3 21 11 29 16 W 0 -
23.01.2019 08:00:00 -1,4 -1,5 18 10 29 16 WSW 0 -
23.01.2019 07:00:00 -1,7 -2,0 16 9 31 17 SSW 0 -
23.01.2019 06:00:00 -1,8 -2,1 21 11 28 15 S 0 2,0
23.01.2019 05:00:00 -2,0 -2,3 16 9 26 14 S 0 0,0
23.01.2019 04:00:00 -2,1 -2,4 15 8 26 14 S 0 0,0
23.01.2019 03:00:00 -2,2 -2,5 15 8 24 13 SSW 0 0,0
23.01.2019 02:00:00 -2,2 -2,5 15 8 31 17 SW 0 0,0
23.01.2019 01:00:00 -2,4 -2,7 18 10 46 25 W 0 -
23.01.2019 00:00:00 -2,1 -2,4 22 12 37 20 W 0 0,0
22.01.2019 23:00:00 -2,0 -2,3 24 13 41 22 W 0 0,2
22.01.2019 22:00:00 -2,0 -2,3 29 16 41 22 W 0 0,0
22.01.2019 21:00:00 -1,9 -2,2 26 14 42 23 WSW 0 0,2
22.01.2019 20:00:00 -1,8 -2,1 22 12 34 18 WSW 0 0,0
22.01.2019 19:00:00 -2,3 -2,6 16 9 26 14 SW 0 -
22.01.2019 18:00:00 -2,7 -3,1 15 8 22 12 SW 0 0,8
22.01.2019 17:00:00 -1,4 -3,6 13 7 22 12 WSW 0 0,0
22.01.2019 16:00:00 -1,1 -3,6 5 3 15 8 SSE 0 0,0
22.01.2019 15:00:00 -1,0 -4,0 9 5 16 9 SSW 0 0,0
22.01.2019 14:00:00 -0,8 -3,8 9 5 16 9 S 36 0,0
22.01.2019 13:00:00 -1,4 -3,8 8 4 21 11 S 48 -
22.01.2019 12:00:00 -2,3 -3,9 11 6 22 12 SSE 36 0,0
22.01.2019 11:00:00 -2,4 -3,8 11 6 21 11 SSE 54 0,0
22.01.2019 10:00:00 -3,6 -4,3 13 7 31 17 SSW 12 0,0
22.01.2019 09:00:00 -4,1 -4,6 24 13 39 21 W 0 0,0
22.01.2019 08:00:00 -4,2 -4,7 28 15 41 22 W 0 0,0
22.01.2019 07:00:00 -4,4 -4,9 29 16 42 23 W 0 -
22.01.2019 06:00:00 -5,0 -5,5 26 14 34 18 WSW 0 0,0
22.01.2019 05:00:00 -5,0 -5,5 22 12 35 19 W 0 0,0
22.01.2019 04:00:00 -5,1 -5,6 18 10 34 18 W 0 0,0
22.01.2019 03:00:00 -5,0 -5,5 22 12 37 20 W 0 0,0
22.01.2019 02:00:00 -5,0 -5,5 22 12 31 17 W 0 0,0
22.01.2019 01:00:00 -4,5 -4,9 13 7 26 14 WSW 0 -
22.01.2019 00:00:00 -4,1 -4,4 15 8 22 12 W 0 0,0
21.01.2019 23:00:00 -3,8 -4,1 9 5 18 10 SW 0 0,0
21.01.2019 22:00:00 -3,8 -3,9 13 7 22 12 W 0 0,0
21.01.2019 21:00:00 -3,5 -3,6 16 9 26 14 W 0 0,0
21.01.2019 20:00:00 -3,4 -3,5 15 8 21 11 W 0 0,0
21.01.2019 19:00:00 -2,8 -2,9 11 6 21 11 W 0 -
21.01.2019 18:00:00 -1,9 -2,0 4 2 13 7 NNW 0 0,0
21.01.2019 17:00:00 -1,7 -1,8 5 3 16 9 NNE 0 0,0
21.01.2019 16:00:00 -1,3 -1,4 5 3 16 9 NNW 0 0,0
21.01.2019 15:00:00 -0,9 -1,0 4 2 15 8 NNW 0 0,0
21.01.2019 14:00:00 -0,6 -0,7 4 2 24 13 NNW 0 0,0
21.01.2019 13:00:00 -0,4 -0,5 8 4 21 11 NNW 0 -
21.01.2019 12:00:00 -0,4 -0,5 8 4 22 12 NNW 0 0,0
21.01.2019 11:00:00 -0,4 -0,5 11 6 24 13 N 0 0,0
21.01.2019 10:00:00 -0,3 -0,4 9 5 22 12 N 0 0,0
21.01.2019 09:00:00 -0,2 -0,3 9 5 22 12 N 0 0,0
21.01.2019 08:00:00 0,0 -0,1 9 5 21 11 N 0 0,0
21.01.2019 07:00:00 0,0 -0,1 9 5 26 14 N 0 -
21.01.2019 06:00:00 0,0 -0,1 9 5 18 10 N 0 0,0
21.01.2019 05:00:00 0,0 -0,1 5 3 22 12 N 0 0,0
21.01.2019 04:00:00 -0,1 -0,2 8 4 21 11 NNE 0 0,0
21.01.2019 03:00:00 -0,1 -0,2 9 5 22 12 N 0 0,0
21.01.2019 02:00:00 0,0 -0,1 11 6 24 13 NNE 0 0,0
21.01.2019 01:00:00 0,2 0,1 9 5 22 12 NNE 0 -
21.01.2019 00:00:00 0,1 0,0 11 6 21 11 NNE 0 0,0
20.01.2019 23:00:00 0,2 0,1 9 5 18 10 NE 0 0,0
20.01.2019 22:00:00 0,4 0,3 13 7 16 9 ENE 0 0,0
20.01.2019 21:00:00 1,0 0,9 11 6 18 10 NE 0 0,0
20.01.2019 20:00:00 1,6 1,5 8 4 16 9 NNE 0 0,0
20.01.2019 19:00:00 1,9 1,8 4 2 8 4 NNE 0 -
20.01.2019 18:00:00 2,1 2,0 4 2 8 4 WNW 0 0,0
20.01.2019 17:00:00 2,4 2,1 4 2 13 7 W 0 0,0
20.01.2019 16:00:00 2,6 2,5 8 4 16 9 WSW 0 0,0
20.01.2019 15:00:00 2,1 2,0 13 7 22 12 W 0 0,2
20.01.2019 14:00:00 1,8 1,5 13 7 26 14 WSW 0 0,0
20.01.2019 13:00:00 1,9 1,5 15 8 26 14 WSW 0 -
20.01.2019 12:00:00 2,2 1,3 16 9 28 15 WSW 0 0,0
20.01.2019 11:00:00 1,6 0,9 11 6 18 10 SSW 0 0,2
20.01.2019 10:00:00 1,1 0,8 13 7 29 16 SSW 0 2,0
20.01.2019 09:00:00 0,6 -0,7 18 10 31 17 WSW 0 0,2
20.01.2019 08:00:00 1,4 -1,3 21 11 28 15 WSW 0 0,0
20.01.2019 07:00:00 1,0 -2,8 16 9 28 15 W 0 -
20.01.2019 06:00:00 2,7 -2,4 13 7 18 10 SW 0 0,0
20.01.2019 05:00:00 2,4 -2,1 9 5 18 10 S 0 0,0
20.01.2019 04:00:00 2,3 -2,0 9 5 16 9 S 0 0,0
20.01.2019 03:00:00 2,1 -1,0 11 6 15 8 SSE 0 0,0
20.01.2019 02:00:00 2,2 -1,6 8 4 15 8 S 0 0,0
20.01.2019 01:00:00 1,4 -3,3 9 5 18 10 S 0 -
20.01.2019 00:00:00 2,0 -3,5 11 6 18 10 S 0 0,0
19.01.2019 23:00:00 0,7 -2,9 11 6 21 11 SSE 0 0,0
19.01.2019 22:00:00 -0,3 -2,5 15 8 24 13 SE 0 0,0
19.01.2019 21:00:00 2,8 -2,5 8 4 13 7 SE 0 0,0
19.01.2019 20:00:00 1,3 -3,8 8 4 21 11 WSW 0 0,0
19.01.2019 19:00:00 0,3 -2,9 13 7 22 12 SE 0 -
19.01.2019 18:00:00 -0,9 -2,9 11 6 22 12 ESE 0 0,0
19.01.2019 17:00:00 -1,5 -2,5 11 6 16 9 E 48 0,0
19.01.2019 16:00:00 -0,8 -1,8 11 6 16 9 E 54 0,0
19.01.2019 15:00:00 -0,4 -1,8 9 5 15 8 ESE 60 0,0
19.01.2019 14:00:00 -1,1 -2,8 9 5 21 11 E 48 0,0
19.01.2019 13:00:00 -1,2 -3,4 9 5 22 12 SE 60 -
19.01.2019 12:00:00 -1,2 -3,7 11 6 26 14 SE 54 0,0
19.01.2019 11:00:00 -1,8 -4,5 15 8 26 14 SE 60 0,0
19.01.2019 10:00:00 -2,1 -5,1 11 6 18 10 SE 60 0,0
19.01.2019 09:00:00 -2,8 -5,3 9 5 13 7 ESE 12 0,0
19.01.2019 08:00:00 -2,7 -5,8 9 5 18 10 SSW 0 0,0
19.01.2019 07:00:00 -2,9 -5,1 11 6 16 9 SSW 0 -
19.01.2019 06:00:00 -3,5 -4,9 11 6 16 9 SW 0 0,0
19.01.2019 05:00:00 -3,4 -3,8 9 5 21 11 S 0 0,0
19.01.2019 04:00:00 -4,0 -4,3 11 6 18 10 ESE 0 0,0
19.01.2019 03:00:00 -4,0 -4,3 11 6 15 8 E 0 0,0
19.01.2019 02:00:00 -3,8 -4,1 9 5 13 7 E 0 0,0
19.01.2019 01:00:00 -3,9 -4,2 11 6 22 12 ENE 0 -
19.01.2019 00:00:00 -3,6 -3,9 18 10 24 13 E 0 0,0
18.01.2019 23:00:00 -3,3 -3,8 18 10 26 14 ENE 0 0,0
18.01.2019 22:00:00 -3,4 -3,9 15 8 18 10 ENE 0 0,0
18.01.2019 21:00:00 -3,2 -3,9 11 6 18 10 ENE 0 0,0
18.01.2019 20:00:00 -3,2 -3,7 18 10 22 12 ENE 0 0,0
18.01.2019 19:00:00 -2,6 -3,9 9 5 18 10 NE 0 -
18.01.2019 18:00:00 -1,9 -3,3 9 5 16 9 NE 0 0,0
18.01.2019 17:00:00 -1,1 -2,8 9 5 15 8 NE 60 0,0
18.01.2019 16:00:00 -0,7 -2,9 8 4 18 10 NE 18 0,0
18.01.2019 15:00:00 -0,8 -3,0 11 6 21 11 NE 0 0,0
18.01.2019 14:00:00 -0,9 -2,8 9 5 29 16 NE 36 0,0
18.01.2019 13:00:00 -1,3 -3,0 22 12 39 21 ENE 36 -
18.01.2019 12:00:00 -1,7 -2,8 18 10 26 14 ENE 60 0,0
18.01.2019 11:00:00 -2,1 -3,5 18 10 29 16 NE 60 0,0
18.01.2019 10:00:00 -2,7 -3,7 22 12 29 16 ENE 48 0,0
18.01.2019 09:00:00 -3,0 -4,1 16 9 28 15 NE 12 0,0
18.01.2019 08:00:00 -3,1 -4,4 11 6 22 12 NE 0 0,0
18.01.2019 07:00:00 -3,3 -4,0 8 4 18 10 NNE 0 -
18.01.2019 06:00:00 -3,2 -4,0 8 4 15 8 NE 0 0,0
18.01.2019 05:00:00 -3,0 -3,5 9 5 22 12 NNE 0 0,0
18.01.2019 04:00:00 -2,4 -3,0 13 7 26 14 N 0 0,0
18.01.2019 03:00:00 -1,7 -2,4 11 6 24 13 N 0 0,0
18.01.2019 02:00:00 -1,2 -1,8 15 8 31 17 N 0 0,0
18.01.2019 01:00:00 -0,9 -1,2 13 7 26 14 NNE 0 -
18.01.2019 00:00:00 -0,3 -0,6 9 5 44 24 NNE 0 2,0

tt = temperature
td = dewpoint
ff = wind speed
fx = gusts
dd = wind direction
sd = sunshine duration
rr = precipitation

Next stations